Time;durP1;ratioP1;P1;durP2;ratioP2;P2;SDS_P1;SDS_P2;PMS_P1;PMS_P2;Temp;Humidity;BMP_temperature;BMP_pressure;BME280_temperature;BME280_humidity;BME280_pressure;Samples;Min_cycle;Max_cycle;Signal;HPM_P1;HPM_P2
2022/01/11 00:00:09;;;;;;;1.90;1.80;;;;;;;7.82;71.00;93973.16;5134150;27;20192;-75
2022/01/11 00:02:40;;;;;;;2.10;1.90;;;;;;;8.01;70.75;94006.97;5134134;27;20200;-76
2022/01/11 00:05:09;;;;;;;2.07;1.97;;;;;;;7.88;70.62;94001.38;5134539;27;20596;-76
2022/01/11 00:07:36;;;;;;;3.00;1.80;;;;;;;7.94;70.72;94007.66;5133383;27;20192;-75
2022/01/11 00:10:06;;;;;;;1.80;1.70;;;;;;;7.87;70.88;94002.34;5134186;27;20242;-75
2022/01/11 00:12:34;;;;;;;2.20;1.70;;;;;;;7.90;70.74;94019.06;5133841;27;20192;-76
2022/01/11 00:15:01;;;;;;;1.90;1.80;;;;;;;7.89;70.61;94022.53;5134286;27;20196;-74
2022/01/11 00:17:28;;;;;;;1.80;1.70;;;;;;;7.86;70.59;94023.66;5139588;27;20203;-76
2022/01/11 00:19:55;;;;;;;1.50;1.40;;;;;;;7.86;70.58;94022.81;5139591;27;20747;-78
2022/01/11 00:22:28;;;;;;;3.13;1.60;;;;;;;7.83;70.75;94026.44;5133968;27;20189;-76
2022/01/11 00:24:54;;;;;;;1.87;1.60;;;;;;;7.81;70.47;94028.31;5133657;27;20284;-76
2022/01/11 00:27:21;;;;;;;1.40;1.40;;;;;;;7.79;70.37;94033.56;5133625;27;20271;-77
2022/01/11 00:29:52;;;;;;;1.53;1.43;;;;;;;7.77;70.31;94032.06;5133288;27;20216;-76
2022/01/11 00:32:28;;;;;;;1.70;1.60;;;;;;;7.74;70.22;94023.00;5133371;27;20212;-75
2022/01/11 00:34:56;;;;;;;1.33;1.33;;;;;;;7.74;70.12;94035.72;5133490;27;20192;-74
2022/01/11 00:37:23;;;;;;;1.50;1.40;;;;;;;7.72;70.14;94029.16;5133469;27;20193;-75
2022/01/11 00:39:52;;;;;;;1.57;1.47;;;;;;;7.65;70.15;94023.81;5133885;27;20188;-75
2022/01/11 00:42:21;;;;;;;1.47;1.43;;;;;;;7.67;70.37;94044.03;5133563;27;20192;-76
2022/01/11 00:44:49;;;;;;;4.43;1.60;;;;;;;7.66;70.14;94050.84;5133860;27;20192;-75
2022/01/11 00:47:16;;;;;;;1.60;1.50;;;;;;;7.62;70.45;94039.34;5133684;27;20196;-75
2022/01/11 00:49:43;;;;;;;1.40;1.40;;;;;;;7.62;70.08;94053.81;5133269;27;20227;-77
2022/01/11 00:52:10;;;;;;;1.60;1.50;;;;;;;7.63;69.93;94050.31;5133274;27;20193;-75
2022/01/11 00:54:37;;;;;;;1.60;1.50;;;;;;;7.63;70.06;94055.41;5133127;27;20203;-76
2022/01/11 00:57:05;;;;;;;1.40;1.40;;;;;;;7.63;70.05;94065.59;5133032;27;20192;-75
2022/01/11 00:59:32;;;;;;;1.67;1.57;;;;;;;7.63;69.98;94068.13;5132110;27;20195;-77
2022/01/11 01:02:00;;;;;;;1.70;1.60;;;;;;;7.63;69.85;94071.47;5133213;27;20188;-75
2022/01/11 01:04:27;;;;;;;1.73;1.63;;;;;;;7.65;69.74;94072.16;5132690;27;20196;-78
2022/01/11 01:06:53;;;;;;;1.73;1.63;;;;;;;7.65;69.61;94076.44;5133288;27;20196;-76
2022/01/11 01:09:20;;;;;;;2.97;2.20;;;;;;;7.67;69.48;94077.09;5132815;27;20236;-76
2022/01/11 01:11:47;;;;;;;2.43;2.23;;;;;;;7.60;69.30;94065.84;5132662;27;20208;-77
2022/01/11 01:14:16;;;;;;;2.53;2.27;;;;;;;7.66;69.08;94078.84;5132836;27;20197;-76
2022/01/11 01:16:43;;;;;;;2.77;1.87;;;;;;;7.66;68.90;94085.69;5132695;27;20667;-75
2022/01/11 01:19:11;;;;;;;2.00;1.90;;;;;;;7.65;68.63;94087.44;5132877;27;20211;-75
2022/01/11 01:21:38;;;;;;;2.03;1.93;;;;;;;7.63;68.56;94096.91;5132676;27;20196;-74
2022/01/11 01:24:07;;;;;;;1.90;1.70;;;;;;;7.50;68.33;94073.50;5132469;27;20695;-76
2022/01/11 01:26:34;;;;;;;1.80;1.70;;;;;;;7.56;68.25;94089.97;5132365;27;20192;-77
2022/01/11 01:29:02;;;;;;;1.60;1.50;;;;;;;7.33;68.29;94066.53;5133162;27;20231;-75
2022/01/11 01:31:29;;;;;;;1.77;1.67;;;;;;;7.56;68.14;94105.25;5132922;27;20200;-76
2022/01/11 01:33:57;;;;;;;1.50;1.50;;;;;;;7.33;67.86;94071.63;5133060;27;20231;-76
2022/01/11 01:36:26;;;;;;;1.80;1.70;;;;;;;7.46;67.90;94095.84;5132291;27;20580;-75
2022/01/11 01:38:53;;;;;;;1.40;1.40;;;;;;;7.52;67.78;94112.34;5132606;27;20188;-75
2022/01/11 01:41:21;;;;;;;1.33;1.33;;;;;;;7.46;67.73;94098.38;5131945;27;20658;-77
2022/01/11 01:43:50;;;;;;;2.50;1.47;;;;;;;7.50;67.72;94111.66;5132692;27;20193;-76
2022/01/11 01:46:17;;;;;;;1.47;1.37;;;;;;;7.50;67.64;94104.03;5132164;27;20184;-75
2022/01/11 01:48:45;;;;;;;1.50;1.50;;;;;;;7.50;67.65;94104.03;5132188;27;20219;-77
2022/01/11 01:51:13;;;;;;;1.30;1.30;;;;;;;7.48;67.53;94111.00;5132162;27;20655;-74
2022/01/11 01:53:44;;;;;;;1.23;1.23;;;;;;;7.48;67.80;94106.72;5131622;27;20192;-75
2022/01/11 01:56:11;;;;;;;1.47;1.43;;;;;;;7.50;67.67;94111.66;5132651;27;20200;-76
2022/01/11 01:58:38;;;;;;;1.30;1.30;;;;;;;7.31;67.50;94083.69;5137019;27;20191;-75
2022/01/11 02:01:05;;;;;;;1.40;1.40;;;;;;;7.43;67.50;94110.59;5137742;27;20192;-76
2022/01/11 02:03:38;;;;;;;1.23;1.23;;;;;;;7.47;67.42;94119.53;5132184;27;20199;-75
2022/01/11 02:06:06;;;;;;;2.27;1.30;;;;;;;7.44;67.49;94115.53;5132010;27;20198;-77
2022/01/11 02:08:34;;;;;;;1.40;1.40;;;;;;;7.44;67.40;94112.19;5131373;27;20184;-76
2022/01/11 02:11:03;;;;;;;1.43;1.37;;;;;;;7.02;67.50;94059.00;5131001;27;20196;-75
2022/01/11 02:13:30;;;;;;;1.57;1.47;;;;;;;7.49;67.27;94125.31;5131612;27;20192;-75
2022/01/11 02:15:58;;;;;;;1.30;1.30;;;;;;;7.49;67.23;94128.66;5131967;27;20188;-75
2022/01/11 02:18:26;;;;;;;1.60;1.50;;;;;;;7.49;67.20;94127.84;5131522;27;20192;-75
2022/01/11 02:20:58;;;;;;;1.60;1.50;;;;;;;7.46;67.15;94125.56;5131622;27;20628;-76
2022/01/11 02:23:26;;;;;;;1.50;1.40;;;;;;;7.48;67.02;94134.69;5131120;27;20955;-76
2022/01/11 02:25:53;;;;;;;1.47;1.47;;;;;;;7.46;67.02;94136.53;5131299;27;20185;-76
2022/01/11 02:28:26;;;;;;;1.87;1.77;;;;;;;7.47;67.07;94130.53;5131400;27;20196;-75
2022/01/11 02:30:54;;;;;;;1.50;1.50;;;;;;;7.49;67.15;94140.56;5131333;27;20583;-76
2022/01/11 02:33:33;;;;;;;1.80;1.70;;;;;;;7.47;66.73;94133.09;5130956;27;20254;-76
2022/01/11 02:36:02;;;;;;;1.83;1.73;;;;;;;7.35;66.70;94110.44;5131435;27;20278;-74
2022/01/11 02:38:29;;;;;;;1.70;1.60;;;;;;;7.28;66.53;94108.41;5130775;27;20195;-75
2022/01/11 02:40:56;;;;;;;1.70;1.60;;;;;;;7.49;66.52;94141.38;5131196;27;20419;-74
2022/01/11 02:43:24;;;;;;;1.60;1.50;;;;;;;7.44;66.81;94137.63;5131107;27;20206;-75
2022/01/11 02:45:50;;;;;;;1.57;1.50;;;;;;;7.49;66.84;94143.94;5131322;27;20229;-75
2022/01/11 02:48:19;;;;;;;1.70;1.60;;;;;;;7.50;66.61;94152.34;5130873;27;20576;-75
2022/01/11 02:50:46;;;;;;;1.70;1.60;;;;;;;7.48;66.63;94144.88;5131118;27;20224;-77
2022/01/11 02:53:15;;;;;;;1.47;1.47;;;;;;;7.44;66.61;94147.81;5130649;27;20234;-78
2022/01/11 02:55:43;;;;;;;1.53;1.50;;;;;;;7.39;66.78;94153.28;5131355;28;20192;-77
2022/01/11 02:58:10;;;;;;;1.90;1.80;;;;;;;7.31;66.73;94134.53;5131021;28;20199;-75
2022/01/11 03:00:39;;;;;;;1.80;1.70;;;;;;;7.43;66.78;94159.72;5131168;28;20210;-75
2022/01/11 03:03:11;;;;;;;1.73;1.60;;;;;;;7.42;66.38;94160.63;5131056;28;20220;-75
2022/01/11 03:05:44;;;;;;;1.50;1.40;;;;;;;7.39;66.79;94160.13;5131201;28;20192;-75
2022/01/11 03:08:11;;;;;;;1.43;1.43;;;;;;;7.40;66.52;94170.16;5130756;28;20199;-75
2022/01/11 03:10:39;;;;;;;2.40;1.50;;;;;;;7.24;66.33;94149.50;5130786;28;20220;-75
2022/01/11 03:13:08;;;;;;;1.60;1.50;;;;;;;7.30;66.32;94161.72;5131148;28;20197;-76
2022/01/11 03:15:36;;;;;;;1.47;1.40;;;;;;;7.33;66.05;94179.22;5131059;28;20271;-77
2022/01/11 03:18:04;;;;;;;1.90;1.80;;;;;;;7.33;66.20;94176.69;5131472;28;20189;-77
2022/01/11 03:20:31;;;;;;;1.40;1.40;;;;;;;7.27;65.91;94167.84;5131069;28;20264;-77
2022/01/11 03:22:58;;;;;;;1.70;1.60;;;;;;;7.18;65.90;94160.22;5134128;27;20196;-77
2022/01/11 03:25:26;;;;;;;1.60;1.57;;;;;;;7.31;65.86;94178.56;5116151;27;20560;-76
2022/01/11 03:27:54;;;;;;;1.40;1.40;;;;;;;7.31;65.81;94177.78;5135650;27;20184;-77
2022/01/11 03:30:21;;;;;;;1.60;1.50;;;;;;;7.29;65.44;94173.59;5134834;27;20224;-75
2022/01/11 03:32:48;;;;;;;1.67;1.57;;;;;;;7.29;65.83;94183.78;5134919;27;20280;-74
2022/01/11 03:35:15;;;;;;;1.70;1.60;;;;;;;7.21;65.78;94167.56;5134929;27;20253;-75
2022/01/11 03:37:44;;;;;;;1.30;1.30;;;;;;;7.28;65.71;94173.75;5134781;27;20196;-76
2022/01/11 03:40:15;;;;;;;1.47;1.40;;;;;;;7.30;65.34;94179.50;5134488;27;20193;-75
2022/01/11 03:42:42;;;;;;;1.60;1.50;;;;;;;7.21;64.97;94173.47;5134883;27;20193;-77
2022/01/11 03:45:12;;;;;;;1.40;1.40;;;;;;;7.13;64.71;94168.22;5134503;27;20296;-74
2022/01/11 03:47:39;;;;;;;1.33;1.33;;;;;;;7.22;64.65;94187.00;5134667;27;20199;-77
2022/01/11 03:50:08;;;;;;;1.63;1.53;;;;;;;7.18;64.16;94185.63;5134605;27;20224;-77
2022/01/11 03:52:35;;;;;;;1.50;1.40;;;;;;;7.16;64.11;94184.94;5134984;27;20188;-75
2022/01/11 03:55:06;;;;;;;1.67;1.57;;;;;;;7.12;64.30;94193.75;5134532;27;20192;-76
2022/01/11 03:57:34;;;;;;;1.60;1.50;;;;;;;7.11;64.41;94195.50;5134895;27;20196;-77
2022/01/11 04:00:02;;;;;;;1.70;1.60;;;;;;;7.11;64.39;94194.69;5134895;27;20192;-76
2022/01/11 04:02:30;;;;;;;1.90;1.80;;;;;;;7.07;64.23;94199.22;5134759;27;20215;-76
2022/01/11 04:04:57;;;;;;;6.00;2.60;;;;;;;7.09;64.36;94205.00;5134685;27;20249;-76
2022/01/11 04:07:27;;;;;;;2.83;2.50;;;;;;;7.08;64.36;94200.03;5134571;27;20223;-76
2022/01/11 04:09:55;;;;;;;2.17;2.07;;;;;;;7.09;64.07;94206.75;5134435;27;20224;-78
2022/01/11 04:12:22;;;;;;;2.20;2.00;;;;;;;6.99;64.27;94196.53;5133776;27;20670;-78
2022/01/11 04:14:49;;;;;;;2.37;2.17;;;;;;;7.10;64.35;94213.44;5134248;27;20192;-77
2022/01/11 04:17:17;;;;;;;2.00;1.90;;;;;;;6.81;64.22;94168.38;5134520;27;20551;-76
2022/01/11 04:19:45;;;;;;;2.03;1.90;;;;;;;7.11;64.10;94226.00;5134011;27;20200;-77
2022/01/11 04:22:12;;;;;;;2.40;2.20;;;;;;;7.11;64.12;94226.00;5134107;27;20196;-78
2022/01/11 04:24:39;;;;;;;2.57;2.37;;;;;;;7.12;64.02;94225.06;5134100;27;20215;-77
2022/01/11 04:27:06;;;;;;;2.20;2.00;;;;;;;7.12;63.91;94227.63;5133758;27;20199;-78
2022/01/11 04:29:33;;;;;;;2.10;2.00;;;;;;;7.10;63.78;94232.03;5134006;27;20227;-77
2022/01/11 04:32:00;;;;;;;2.57;2.37;;;;;;;7.10;63.69;94242.22;5133733;27;20184;-78
2022/01/11 04:34:28;;;;;;;2.00;1.83;;;;;;;6.97;63.71;94226.38;5133016;27;20669;-78
2022/01/11 04:36:56;;;;;;;1.90;1.80;;;;;;;7.07;63.41;94247.53;5137521;27;20188;-78
2022/01/11 04:39:23;;;;;;;1.50;1.40;;;;;;;7.12;63.74;94252.25;5134138;27;20188;-79
2022/01/11 04:41:50;;;;;;;1.90;1.80;;;;;;;6.84;63.44;94207.97;5137848;27;20687;-77
2022/01/11 04:44:17;;;;;;;1.90;1.80;;;;;;;7.10;63.48;94259.22;5135260;27;20215;-78
2022/01/11 04:46:44;;;;;;;2.00;1.90;;;;;;;6.95;63.60;94235.84;5133686;27;20184;-76
2022/01/11 04:49:10;;;;;;;2.20;1.70;;;;;;;7.11;63.48;94268.44;5133612;27;20189;-79
2022/01/11 04:51:38;;;;;;;1.83;1.70;;;;;;;7.01;63.27;94259.03;5134317;27;20228;-78
2022/01/11 04:54:07;;;;;;;2.00;1.90;;;;;;;7.07;63.13;94270.41;5115172;27;20185;-79
2022/01/11 04:59:15;;;;;;;2.00;1.83;;;;;;;7.06;63.17;94271.38;5117163;27;20671;-78
2022/01/11 05:01:43;;;;;;;1.90;1.80;;;;;;;7.08;63.07;94279.69;5114902;27;20185;-78
2022/01/11 05:04:14;;;;;;;1.80;1.70;;;;;;;7.08;62.92;94282.22;5133852;27;20189;-78
2022/01/11 05:06:42;;;;;;;1.87;1.77;;;;;;;7.08;62.79;94284.75;5116057;27;20196;-78
2022/01/11 05:09:14;;;;;;;2.03;1.90;;;;;;;7.09;62.63;94285.56;5133499;27;20192;-77
2022/01/11 05:11:41;;;;;;;1.80;1.70;;;;;;;6.95;62.71;94263.81;5114231;27;20216;-79
2022/01/11 05:14:13;;;;;;;1.90;1.77;;;;;;;7.01;62.44;94281.09;5115848;27;20195;-78
2022/01/11 05:16:40;;;;;;;1.50;1.50;;;;;;;6.94;62.37;94264.75;5133123;27;20199;-80
2022/01/11 05:19:12;;;;;;;1.80;1.70;;;;;;;6.96;62.15;94273.88;5132838;27;20302;-81
2022/01/11 05:21:39;;;;;;;1.83;1.73;;;;;;;7.06;62.36;94293.44;5133132;27;20252;-78
2022/01/11 05:24:07;;;;;;;1.90;1.80;;;;;;;7.03;62.20;94292.75;5133186;27;20705;-77
2022/01/11 05:26:36;;;;;;;1.63;1.53;;;;;;;6.97;61.97;94287.38;5132571;27;20189;-79
2022/01/11 05:29:04;;;;;;;1.77;1.67;;;;;;;6.96;62.24;94293.41;5134340;27;20202;-79
2022/01/11 05:31:33;;;;;;;2.23;1.83;;;;;;;7.03;62.25;94307.19;5132876;27;20235;-78
2022/01/11 05:34:00;;;;;;;3.10;1.83;;;;;;;7.02;62.29;94306.41;5132521;27;20220;-78
2022/01/11 05:36:27;;;;;;;1.73;1.63;;;;;;;6.87;61.83;94286.53;5114297;27;20573;-78
2022/01/11 05:38:54;;;;;;;1.80;1.70;;;;;;;6.93;61.92;94293.63;5132916;27;20210;-78
2022/01/11 05:41:21;;;;;;;1.60;1.50;;;;;;;7.00;61.58;94310.81;5132589;27;20195;-78
2022/01/11 05:43:49;;;;;;;1.70;1.60;;;;;;;6.85;61.17;94296.00;5132886;27;20199;-78
2022/01/11 05:46:17;;;;;;;1.47;1.43;;;;;;;6.88;61.15;94298.28;5132451;27;20199;-78
2022/01/11 05:48:45;;;;;;;1.50;1.50;;;;;;;6.92;61.23;94318.25;5132588;27;20670;-78
2022/01/11 05:51:12;;;;;;;1.60;1.50;;;;;;;6.85;61.24;94311.25;5132389;27;20273;-77
2022/01/11 05:53:39;;;;;;;1.80;1.70;;;;;;;6.89;61.33;94320.22;5134602;27;20188;-80
2022/01/11 05:56:07;;;;;;;1.60;1.50;;;;;;;6.78;60.98;94300.78;5135833;27;20814;-83
2022/01/11 05:58:34;;;;;;;1.77;1.67;;;;;;;6.92;60.87;94323.34;5111171;28;20204;-78
2022/01/11 06:01:03;;;;;;;1.50;1.50;;;;;;;6.91;60.80;94326.81;5109363;28;20193;-78
2022/01/11 06:03:30;;;;;;;1.77;1.67;;;;;;;6.85;61.09;94321.41;5109540;28;20192;-79
2022/01/11 06:05:57;;;;;;;1.77;1.67;;;;;;;6.85;60.67;94319.66;5109309;28;20185;-78
2022/01/11 06:08:24;;;;;;;1.80;1.70;;;;;;;6.93;60.53;94347.81;5111056;28;20181;-80
2022/01/11 06:10:51;;;;;;;1.87;1.77;;;;;;;6.91;60.66;94346.31;5108636;28;20239;-78
2022/01/11 06:13:18;;;;;;;1.80;1.70;;;;;;;6.18;60.59;94234.47;5110408;28;20258;-85
2022/01/11 06:15:45;;;;;;;1.70;1.60;;;;;;;5.16;60.52;94082.75;5112548;28;20205;-81
2022/01/11 06:18:13;;;;;;;1.70;1.60;;;;;;;6.84;60.47;94335.06;5115042;27;20727;-75
2022/01/11 06:20:40;;;;;;;1.40;1.40;;;;;;;6.95;60.25;94362.94;5114385;27;20203;-79
2022/01/11 06:23:08;;;;;;;1.60;1.50;;;;;;;6.71;60.11;94320.00;5129064;27;20204;-81
2022/01/11 06:25:37;;;;;;;1.70;1.60;;;;;;;6.97;60.23;94361.91;5125458;27;20192;-76
2022/01/11 06:28:04;;;;;;;1.70;1.60;;;;;;;6.91;60.26;94353.94;5125789;27;20215;-82
2022/01/11 06:30:31;;;;;;;1.60;1.50;;;;;;;6.84;60.18;94363.00;5125529;27;20212;-75
2022/01/11 06:33:11;;;;;;;1.90;1.80;;;;;;;6.68;60.28;94323.56;5128226;27;20701;-75
2022/01/11 06:35:40;;;;;;;1.77;1.67;;;;;;;7.00;60.25;94382.00;5128483;27;20196;-74
2022/01/11 06:38:07;;;;;;;1.70;1.60;;;;;;;6.74;60.26;94335.00;5127562;27;20196;-76
2022/01/11 06:40:34;;;;;;;2.00;1.90;;;;;;;6.73;60.18;94338.44;5128092;27;20192;-76
2022/01/11 06:43:00;;;;;;;2.00;1.90;;;;;;;6.95;60.21;94376.47;5128049;27;20651;-76
2022/01/11 06:45:28;;;;;;;2.03;1.90;;;;;;;7.04;59.92;94388.44;5127942;27;20203;-82
2022/01/11 06:47:56;;;;;;;2.00;1.90;;;;;;;6.99;59.88;94379.56;5128136;27;20200;-75
2022/01/11 06:50:23;;;;;;;2.27;1.83;;;;;;;7.08;59.54;94389.00;5129356;27;20224;-77
2022/01/11 06:52:51;;;;;;;1.97;1.87;;;;;;;7.08;59.50;94388.16;5128749;27;20188;-74
2022/01/11 06:55:19;;;;;;;2.77;2.43;;;;;;;7.01;59.41;94392.97;5129066;28;20200;-77
2022/01/11 06:57:46;;;;;;;2.77;2.30;;;;;;;7.00;59.18;94386.28;5127767;27;20306;-79
2022/01/11 07:00:14;;;;;;;2.60;2.40;;;;;;;7.08;58.99;94411.06;5131294;28;20196;-80
2022/01/11 07:02:41;;;;;;;2.87;2.50;;;;;;;7.07;58.97;94405.16;5130768;28;20200;-78
2022/01/11 07:05:09;;;;;;;2.33;2.20;;;;;;;7.00;58.78;94396.44;5131874;28;20192;-82
2022/01/11 07:07:37;;;;;;;2.93;2.63;;;;;;;7.05;58.86;94404.50;5119361;28;20207;-82
2022/01/11 07:10:06;;;;;;;2.20;2.10;;;;;;;7.01;58.95;94403.13;5133798;28;20214;-77
2022/01/11 07:12:33;;;;;;;2.60;2.40;;;;;;;7.07;58.58;94417.88;5130340;28;20196;-78
2022/01/11 07:15:00;;;;;;;3.67;2.87;;;;;;;7.07;58.56;94419.63;5132898;28;20196;-87
2022/01/11 07:17:27;;;;;;;2.53;2.33;;;;;;;7.00;58.39;94406.59;5131106;28;20196;-82
2022/01/11 07:19:53;;;;;;;3.67;2.33;;;;;;;6.56;58.35;94349.16;5128422;28;20184;-78
2022/01/11 07:22:20;;;;;;;3.77;2.43;;;;;;;7.01;58.35;94429.34;5137320;28;20188;-77
2022/01/11 07:24:47;;;;;;;2.53;2.13;;;;;;;7.00;58.21;94432.84;5134890;28;20207;-80
2022/01/11 07:27:15;;;;;;;3.73;3.00;;;;;;;6.93;58.21;94426.63;5128161;28;20896;-78
2022/01/11 07:29:43;;;;;;;2.60;2.40;;;;;;;6.99;58.24;94445.66;5127754;28;20203;-80
2022/01/11 07:32:10;;;;;;;3.40;2.60;;;;;;;6.62;58.23;94397.75;5108058;27;20228;-79
2022/01/11 07:34:37;;;;;;;2.73;2.43;;;;;;;6.96;57.97;94451.81;5129566;28;20671;-78
2022/01/11 07:37:04;;;;;;;2.60;2.40;;;;;;;6.68;58.15;94407.41;5128693;27;20185;-79
2022/01/11 07:39:31;;;;;;;2.60;2.40;;;;;;;6.93;58.22;94451.22;5127899;28;20194;-78
2022/01/11 07:41:58;;;;;;;2.30;2.10;;;;;;;6.92;58.20;94457.25;5128388;28;20601;-78
2022/01/11 07:44:26;;;;;;;2.87;2.37;;;;;;;6.75;58.31;94436.50;5128353;28;20693;-76
2022/01/11 07:46:53;;;;;;;2.30;2.10;;;;;;;6.90;58.40;94464.16;5129000;28;20196;-78
2022/01/11 07:49:21;;;;;;;4.10;2.27;;;;;;;6.90;58.40;94457.34;5127864;28;20231;-79
2022/01/11 07:51:48;;;;;;;2.77;2.50;;;;;;;6.89;58.26;94455.75;5127987;28;20227;-78
2022/01/11 07:54:16;;;;;;;3.73;2.10;;;;;;;6.88;58.23;94463.50;5128500;28;20188;-79
2022/01/11 07:56:43;;;;;;;2.67;2.20;;;;;;;6.88;58.44;94456.69;5127757;28;20200;-78
2022/01/11 07:59:27;;;;;;;2.37;2.20;;;;;;;6.83;58.50;94450.34;5128314;28;20275;-79
2022/01/11 08:01:57;;;;;;;2.07;1.90;;;;;;;6.98;59.55;94472.81;5127700;28;20196;-77
2022/01/11 08:04:25;;;;;;;2.70;2.30;;;;;;;7.10;59.32;94482.94;5128364;28;20253;-80
2022/01/11 08:06:51;;;;;;;3.20;2.40;;;;;;;6.88;59.71;94450.78;5127436;28;20830;-77
2022/01/11 08:09:18;;;;;;;3.27;2.50;;;;;;;7.15;59.71;94488.47;5129013;27;20204;-80
2022/01/11 08:11:49;;;;;;;2.00;1.90;;;;;;;7.13;59.67;94482.72;5112650;27;20220;-80
2022/01/11 08:14:18;;;;;;;1.90;1.80;;;;;;;7.10;59.38;94495.66;5130264;27;20200;-81
2022/01/11 08:16:45;;;;;;;3.20;2.13;;;;;;;7.06;59.36;94494.28;5131639;27;20206;-77
2022/01/11 08:19:13;;;;;;;1.90;1.80;;;;;;;7.04;59.11;94485.06;5130969;27;20193;-77
2022/01/11 08:21:40;;;;;;;2.10;1.90;;;;;;;7.10;73.14;94495.66;5131117;27;20559;-79
2022/01/11 08:24:07;;;;;;;1.53;1.50;;;;;;;8.04;100.00;94503.22;5130565;27;20192;-79
2022/01/11 08:26:34;;;;;;;4.13;1.53;;;;;;;9.14;100.00;94500.72;5130922;27;20192;-77
2022/01/11 08:29:01;;;;;;;2.70;2.50;;;;;;;9.65;100.00;94483.50;5132168;27;20302;-78
2022/01/11 08:31:28;;;;;;;2.30;2.10;;;;;;;9.42;96.86;94439.63;5130884;27;20212;-77
2022/01/11 08:33:55;;;;;;;3.20;2.80;;;;;;;9.75;87.37;94508.06;5131234;27;20232;-76
2022/01/11 08:36:23;;;;;;;3.00;2.47;;;;;;;9.47;79.58;94488.50;5131681;27;20196;-79
2022/01/11 08:38:50;;;;;;;2.13;1.93;;;;;;;9.49;73.47;94518.03;5131178;27;20579;-80
2022/01/11 08:41:19;;;;;;;2.50;2.30;;;;;;;8.91;69.57;94456.81;5131395;27;20196;-78
2022/01/11 08:43:47;;;;;;;2.77;2.53;;;;;;;9.15;66.98;94521.94;5133441;27;20196;-76
2022/01/11 08:46:16;;;;;;;2.97;2.17;;;;;;;8.77;65.45;94482.72;5132441;27;20197;-77
2022/01/11 08:48:43;;;;;;;2.20;1.87;;;;;;;8.88;64.32;94530.22;5132954;27;20196;-77
2022/01/11 08:51:09;;;;;;;2.70;2.50;;;;;;;8.73;62.97;94545.09;5132715;27;20227;-77
2022/01/11 08:53:38;;;;;;;8.47;2.70;;;;;;;8.60;61.77;94549.63;5132018;27;20203;-80
2022/01/11 08:56:05;;;;;;;3.43;2.33;;;;;;;8.48;61.48;94559.91;5132535;27;20200;-79
2022/01/11 08:58:32;;;;;;;3.03;2.40;;;;;;;8.27;60.63;94541.25;5132943;27;20204;-77
2022/01/11 09:00:59;;;;;;;2.40;2.20;;;;;;;8.23;59.83;94560.28;5128413;27;20200;-77
2022/01/11 09:03:26;;;;;;;2.60;2.40;;;;;;;8.09;60.12;94542.78;5135014;27;20207;-76
2022/01/11 09:05:54;;;;;;;2.70;2.50;;;;;;;7.94;59.90;94545.66;5132851;27;20188;-78
2022/01/11 09:08:21;;;;;;;2.43;2.23;;;;;;;7.93;59.56;94561.06;5133345;27;20625;-79
2022/01/11 09:10:50;;;;;;;2.70;2.40;;;;;;;7.86;58.90;94563.31;5133551;27;20651;-80
2022/01/11 09:13:18;;;;;;;3.37;2.60;;;;;;;7.77;58.84;94564.88;5132916;27;20245;-78
2022/01/11 09:15:46;;;;;;;2.23;2.03;;;;;;;7.41;58.64;94527.88;5133263;27;20192;-78
2022/01/11 09:18:15;;;;;;;2.30;2.10;;;;;;;7.59;58.44;94566.31;5132768;27;20199;-76
2022/01/11 09:20:42;;;;;;;2.63;2.43;;;;;;;7.40;58.37;94536.47;5132565;27;20188;-77
2022/01/11 09:23:11;;;;;;;2.97;2.77;;;;;;;7.36;58.24;94544.44;5132682;27;20207;-76
2022/01/11 09:25:38;;;;;;;3.37;2.93;;;;;;;7.14;58.32;94523.25;5132963;27;20196;-76
2022/01/11 09:28:07;;;;;;;2.67;2.30;;;;;;;7.05;58.42;94518.91;5132831;27;20196;-78
2022/01/11 09:30:34;;;;;;;3.10;2.77;;;;;;;7.07;58.31;94532.28;5132774;27;20192;-76
2022/01/11 09:33:01;;;;;;;2.53;2.33;;;;;;;7.18;58.24;94556.88;5131847;27;20239;-77
2022/01/11 09:35:28;;;;;;;2.40;2.20;;;;;;;7.20;58.40;94560.09;5132500;27;20188;-76
2022/01/11 09:37:55;;;;;;;2.77;2.20;;;;;;;7.14;57.97;94573.31;5132378;27;20199;-78
2022/01/11 09:40:21;;;;;;;2.73;2.20;;;;;;;7.09;58.26;94565.25;5132631;27;20188;-76
2022/01/11 09:42:48;;;;;;;2.47;2.27;;;;;;;7.07;58.23;94562.00;5132654;27;20250;-79
2022/01/11 09:45:18;;;;;;;2.10;2.00;;;;;;;7.04;58.04;94568.94;5132277;27;20515;-77
2022/01/11 09:47:45;;;;;;;4.10;2.63;;;;;;;6.99;58.01;94573.59;5137430;27;20204;-76
2022/01/11 09:50:14;;;;;;;2.83;2.60;;;;;;;6.93;57.83;94558.78;5138036;27;20608;-79
2022/01/11 09:52:41;;;;;;;4.87;3.03;;;;;;;6.64;57.62;94533.06;5133349;27;20227;-78
2022/01/11 09:55:12;;;;;;;3.10;2.40;;;;;;;6.89;57.76;94567.59;5132037;27;20184;-74
2022/01/11 09:57:39;;;;;;;2.27;2.13;;;;;;;6.88;57.89;94572.78;5130311;27;20672;-76
2022/01/11 10:00:08;;;;;;;2.40;2.20;;;;;;;6.86;58.15;94572.91;5114929;27;20193;-77
2022/01/11 10:02:37;;;;;;;2.33;2.17;;;;;;;6.79;57.95;94570.03;5109064;28;20196;-74
2022/01/11 10:05:08;;;;;;;2.23;2.03;;;;;;;6.86;57.97;94577.97;5108756;28;20204;-76
2022/01/11 10:07:40;;;;;;;3.10;2.53;;;;;;;6.86;58.00;94588.13;5108938;28;20754;-78
2022/01/11 10:10:12;;;;;;;2.30;2.17;;;;;;;6.56;57.98;94543.00;5108848;28;20185;-78
2022/01/11 10:12:46;;;;;;;3.10;2.33;;;;;;;6.71;57.82;94558.84;5108617;28;20252;-76
2022/01/11 10:15:13;;;;;;;2.40;2.20;;;;;;;6.68;58.19;94559.88;5108252;28;20212;-75
2022/01/11 10:17:44;;;;;;;4.00;2.37;;;;;;;6.90;57.99;94593.81;5108254;28;20185;-76
2022/01/11 10:20:14;;;;;;;3.07;2.30;;;;;;;6.91;57.85;94586.09;5108865;28;20575;-79
2022/01/11 10:22:50;;;;;;;4.23;2.30;;;;;;;6.92;57.83;94582.59;5109227;28;20205;-77
2022/01/11 10:25:17;;;;;;;2.60;2.20;;;;;;;6.95;57.72;94591.72;5108798;28;20192;-79
2022/01/11 10:27:46;;;;;;;2.40;2.20;;;;;;;6.80;57.81;94563.22;5111615;28;20204;-80
2022/01/11 10:30:18;;;;;;;2.37;2.10;;;;;;;6.95;57.58;94600.16;5121570;27;20245;-79
2022/01/11 10:32:47;;;;;;;4.47;2.30;;;;;;;6.92;57.29;94599.59;5130576;27;20725;-82
2022/01/11 10:35:18;;;;;;;2.23;2.00;;;;;;;6.91;57.29;94600.50;5132261;27;20192;-78
2022/01/11 10:37:47;;;;;;;2.47;2.07;;;;;;;6.91;57.33;94605.59;5131709;27;20188;-80
2022/01/11 10:40:17;;;;;;;2.00;1.90;;;;;;;6.89;57.39;94603.16;5131202;27;20195;-81
2022/01/11 10:42:48;;;;;;;2.80;2.20;;;;;;;6.65;57.16;94565.22;5135957;27;20211;-80
2022/01/11 10:45:19;;;;;;;2.40;2.10;;;;;;;6.62;57.33;94572.25;5131345;27;20188;-79
2022/01/11 10:47:57;;;;;;;4.60;2.33;;;;;;;6.69;57.41;94578.47;5131377;27;20701;-79
2022/01/11 10:50:29;;;;;;;2.60;2.40;;;;;;;6.46;57.54;94553.06;5131350;27;20192;-80
2022/01/11 10:52:57;;;;;;;2.40;2.20;;;;;;;6.76;57.32;94610.13;5128506;27;20226;-78
2022/01/11 10:55:26;;;;;;;2.43;2.17;;;;;;;6.70;57.50;94600.44;5129529;27;20203;-80
2022/01/11 10:57:55;;;;;;;2.33;2.13;;;;;;;6.69;57.47;94607.25;5132090;27;20195;-81
2022/01/11 11:00:24;;;;;;;2.13;1.90;;;;;;;6.69;57.64;94606.41;5112992;28;20630;-78
2022/01/11 11:03:03;;;;;;;2.30;2.20;;;;;;;6.68;57.34;94607.34;5131868;28;20188;-82
2022/01/11 11:05:34;;;;;;;2.50;2.07;;;;;;;6.63;57.06;94596.72;5131516;28;20199;-80
2022/01/11 11:08:07;;;;;;;2.10;2.00;;;;;;;6.43;57.45;94560.13;5143517;28;20230;-79
2022/01/11 11:10:40;;;;;;;2.33;2.10;;;;;;;5.62;56.92;94426.59;5147693;28;20188;-83
2022/01/11 11:13:10;;;;;;;2.70;2.20;;;;;;;6.61;57.19;94585.88;5147672;28;20235;-80
2022/01/11 11:15:40;;;;;;;3.90;2.23;;;;;;;6.60;57.06;94585.06;5141267;28;20259;-78
2022/01/11 11:18:21;;;;;;;2.03;1.93;;;;;;;6.57;56.72;94580.22;5138930;28;20654;-81
2022/01/11 11:20:48;;;;;;;2.67;2.47;;;;;;;6.21;56.66;94530.44;5140272;28;20249;-80
2022/01/11 11:23:17;;;;;;;2.60;2.40;;;;;;;6.54;56.09;94577.91;5133151;28;20192;-79
2022/01/11 11:25:45;;;;;;;2.40;2.20;;;;;;;6.31;55.99;94548.38;5131362;28;20213;-79
2022/01/11 11:28:15;;;;;;;2.73;2.00;;;;;;;6.56;56.14;94587.94;5131540;28;20847;-78
2022/01/11 11:30:55;;;;;;;2.80;2.53;;;;;;;6.59;56.06;94590.25;5113621;28;20196;-81
2022/01/11 11:34:01;;;;;;;2.43;2.23;;;;;;;6.62;55.99;94593.38;5129135;28;20235;-78
2022/01/11 11:36:30;;;;;;;2.93;2.67;;;;;;;6.67;55.85;94593.84;5131308;28;20200;-79
2022/01/11 11:39:03;;;;;;;2.70;2.50;;;;;;;6.43;55.53;94553.31;5131034;28;20192;-79
2022/01/11 11:41:33;;;;;;;3.20;2.83;;;;;;;6.65;55.59;94589.78;5113634;28;20196;-79
2022/01/11 11:44:18;;;;;;;2.97;2.67;;;;;;;6.69;55.39;94609.78;5132791;27;20188;-78
2022/01/11 11:46:49;;;;;;;3.17;2.80;;;;;;;6.68;55.42;94614.97;5136496;27;20271;-79
2022/01/11 11:49:44;;;;;;;3.10;2.80;;;;;;;6.69;55.17;94611.50;5134842;27;20249;-77